createdAt,value
2022-11-10T00:00:51.056Z,982.03
2022-11-10T00:01:51.059Z,982.06
2022-11-10T00:02:51.017Z,982.04
2022-11-10T00:03:51.059Z,982.02
2022-11-10T00:04:50.997Z,982.06
2022-11-10T00:05:50.994Z,982.04
2022-11-10T00:06:50.992Z,982.10
2022-11-10T00:07:50.961Z,982.02
2022-11-10T00:08:50.956Z,982.05
2022-11-10T00:09:50.943Z,982.07
2022-11-10T00:10:50.949Z,982.07
2022-11-10T00:11:50.959Z,982.16
2022-11-10T00:12:50.962Z,982.15
2022-11-10T00:13:50.890Z,982.13
2022-11-10T00:14:51.922Z,982.17
2022-11-10T00:15:50.852Z,982.12
2022-11-10T00:16:50.892Z,982.18
2022-11-10T00:17:50.899Z,982.17
2022-11-10T00:18:50.973Z,982.19
2022-11-10T00:19:50.911Z,982.19
2022-11-10T00:20:50.789Z,982.23
2022-11-10T00:21:50.781Z,982.24
2022-11-10T00:22:50.829Z,982.23
2022-11-10T00:23:50.884Z,982.24
2022-11-10T00:24:50.736Z,982.20
2022-11-10T00:25:50.740Z,982.26
2022-11-10T00:26:50.751Z,982.22
2022-11-10T00:27:50.723Z,982.21
2022-11-10T00:28:50.791Z,982.22
2022-11-10T00:29:50.672Z,982.26
2022-11-10T00:30:50.680Z,982.26
2022-11-10T00:31:50.690Z,982.28
2022-11-10T00:32:50.693Z,982.29
2022-11-10T00:33:50.643Z,982.35
2022-11-10T00:34:50.617Z,982.33
2022-11-10T00:35:50.597Z,982.31
2022-11-10T00:36:50.584Z,982.35
2022-11-10T00:37:50.575Z,982.31
2022-11-10T00:38:50.573Z,982.38
2022-11-10T00:39:50.562Z,982.35
2022-11-10T00:40:50.533Z,982.36
2022-11-10T00:41:50.528Z,982.37
2022-11-10T00:42:50.505Z,982.39
2022-11-10T00:43:50.505Z,982.40
2022-11-10T00:44:50.485Z,982.40
2022-11-10T00:45:50.467Z,982.45
2022-11-10T00:46:50.446Z,982.41
2022-11-10T00:47:50.456Z,982.44
2022-11-10T00:48:50.458Z,982.45
2022-11-10T00:49:50.426Z,982.42
2022-11-10T00:50:50.403Z,982.41
2022-11-10T00:51:50.394Z,982.49
2022-11-10T00:52:50.385Z,982.51
2022-11-10T00:53:50.425Z,982.56
2022-11-10T00:54:50.345Z,982.58
2022-11-10T00:55:50.337Z,982.60
2022-11-10T00:56:50.326Z,982.58
2022-11-10T00:57:50.328Z,982.58
2022-11-10T00:58:50.320Z,982.61
2022-11-10T00:59:50.303Z,982.62
2022-11-10T01:00:50.317Z,982.65
2022-11-10T01:01:50.267Z,982.69
2022-11-10T01:02:50.279Z,982.70
2022-11-10T01:03:50.247Z,982.74
2022-11-10T01:04:50.228Z,982.69
2022-11-10T01:05:50.212Z,982.69
2022-11-10T01:06:50.256Z,982.65
2022-11-10T01:07:50.187Z,982.72
2022-11-10T01:08:50.178Z,982.67
2022-11-10T01:09:50.251Z,982.71
2022-11-10T01:10:50.148Z,982.71
2022-11-10T01:11:50.138Z,982.74
2022-11-10T01:12:50.122Z,982.71
2022-11-10T01:13:50.120Z,982.75
2022-11-10T01:14:50.108Z,982.75
2022-11-10T01:15:50.090Z,982.71
2022-11-10T01:16:50.082Z,982.75
2022-11-10T01:17:50.059Z,982.75
2022-11-10T01:18:50.062Z,982.73
2022-11-10T01:19:50.061Z,982.70
2022-11-10T01:20:50.015Z,982.74
2022-11-10T01:21:50.000Z,982.78
2022-11-10T01:22:49.990Z,982.81
2022-11-10T01:23:50.982Z,982.80
2022-11-10T01:24:49.971Z,982.78
2022-11-10T01:25:49.951Z,982.77
2022-11-10T01:26:49.959Z,982.82
2022-11-10T01:27:49.927Z,982.85
2022-11-10T01:28:49.912Z,982.92
2022-11-10T01:29:49.924Z,982.90
2022-11-10T01:30:49.882Z,982.86
2022-11-10T01:31:49.877Z,982.95
2022-11-10T01:32:49.872Z,982.98
2022-11-10T01:33:49.853Z,983.03
2022-11-10T01:34:49.850Z,983.00
2022-11-10T01:35:49.844Z,982.97
2022-11-10T01:36:49.803Z,983.00
2022-11-10T01:37:49.806Z,982.97
2022-11-10T01:38:49.794Z,982.98
2022-11-10T01:39:49.793Z,983.06
2022-11-10T01:40:49.774Z,983.01
2022-11-10T01:41:49.747Z,983.06
2022-11-10T01:42:49.729Z,983.08
2022-11-10T01:43:49.735Z,983.11
2022-11-10T01:44:49.713Z,983.15
2022-11-10T01:45:49.702Z,983.15
2022-11-10T01:46:49.704Z,983.15
2022-11-10T01:47:49.676Z,983.19
2022-11-10T01:48:49.663Z,983.20
2022-11-10T01:49:49.655Z,983.19
2022-11-10T01:50:49.633Z,983.23
2022-11-10T01:51:49.635Z,983.18
2022-11-10T01:52:49.606Z,983.27
2022-11-10T01:53:49.599Z,983.29
2022-11-10T01:54:49.587Z,983.25
2022-11-10T01:55:49.583Z,983.24
2022-11-10T01:56:49.552Z,983.30
2022-11-10T01:57:49.547Z,983.31
2022-11-10T01:58:49.526Z,983.39
2022-11-10T01:59:49.535Z,983.29
2022-11-10T02:00:49.512Z,983.35
2022-11-10T02:01:49.496Z,983.36
2022-11-10T02:02:49.478Z,983.25
2022-11-10T02:03:49.465Z,983.29
2022-11-10T02:04:49.457Z,983.32
2022-11-10T02:05:49.460Z,983.26
2022-11-10T02:06:49.439Z,983.37
2022-11-10T02:07:49.417Z,983.38
2022-11-10T02:08:49.396Z,983.41
2022-11-10T02:09:49.416Z,983.40
2022-11-10T02:10:49.383Z,983.44
2022-11-10T02:11:49.367Z,983.44
2022-11-10T02:12:49.381Z,983.42
2022-11-10T02:13:49.337Z,983.37
2022-11-10T02:14:49.319Z,983.40
2022-11-10T02:15:49.344Z,983.35
2022-11-10T02:16:49.297Z,983.32
2022-11-10T02:17:49.279Z,983.35
2022-11-10T02:18:49.271Z,983.30
2022-11-10T02:19:49.280Z,983.34
2022-11-10T02:20:49.250Z,983.38
2022-11-10T02:21:49.246Z,983.38
2022-11-10T02:22:49.229Z,983.43
2022-11-10T02:23:49.207Z,983.46
2022-11-10T02:24:49.192Z,983.47
2022-11-10T02:25:49.209Z,983.51
2022-11-10T02:26:49.165Z,983.50
2022-11-10T02:27:49.199Z,983.49
2022-11-10T02:28:49.139Z,983.51
2022-11-10T02:29:49.129Z,983.50
2022-11-10T02:30:49.128Z,983.57
2022-11-10T02:31:49.122Z,983.56
2022-11-10T02:32:49.090Z,983.57
2022-11-10T02:33:49.070Z,983.61
2022-11-10T02:34:49.068Z,983.55
2022-11-10T02:35:49.060Z,983.54
2022-11-10T02:36:49.048Z,983.49
2022-11-10T02:37:49.032Z,983.51
2022-11-10T02:38:49.011Z,983.55
2022-11-10T02:39:48.991Z,983.58
2022-11-10T02:40:49.000Z,983.51
2022-11-10T02:41:48.990Z,983.48
2022-11-10T02:42:48.983Z,983.57
2022-11-10T02:43:48.941Z,983.55
2022-11-10T02:44:48.940Z,983.59
2022-11-10T02:45:48.941Z,983.55
2022-11-10T02:46:48.908Z,983.64
2022-11-10T02:47:48.891Z,983.70
2022-11-10T02:48:48.881Z,983.65
2022-11-10T02:49:48.872Z,983.66
2022-11-10T02:50:48.871Z,983.68
2022-11-10T02:51:48.849Z,983.69
2022-11-10T02:52:48.843Z,983.76
2022-11-10T02:53:48.832Z,983.75
2022-11-10T02:54:48.812Z,983.73
2022-11-10T02:55:48.804Z,983.80
2022-11-10T02:56:48.781Z,983.85
2022-11-10T02:57:48.773Z,983.79
2022-11-10T02:58:48.762Z,983.88
2022-11-10T02:59:48.742Z,983.89
2022-11-10T03:00:48.732Z,983.86
2022-11-10T03:01:48.712Z,983.92
2022-11-10T03:02:48.712Z,983.99
2022-11-10T03:03:48.692Z,983.95
2022-11-10T03:04:48.673Z,983.83
2022-11-10T03:05:48.676Z,983.93
2022-11-10T03:06:48.678Z,983.99
2022-11-10T03:07:48.634Z,984.02
2022-11-10T03:08:48.624Z,983.96
2022-11-10T03:09:48.635Z,984.02
2022-11-10T03:10:48.614Z,984.03
2022-11-10T03:11:48.584Z,984.03
2022-11-10T03:12:48.574Z,984.04
2022-11-10T03:14:00.966Z,984.03
2022-11-10T03:14:49.545Z,984.02
2022-11-10T03:15:48.628Z,984.08
2022-11-10T03:16:48.542Z,984.13
2022-11-10T03:17:48.512Z,984.10
2022-11-10T03:18:48.505Z,984.08
2022-11-10T03:19:48.486Z,984.20
2022-11-10T03:20:48.485Z,984.16
2022-11-10T03:21:48.453Z,984.19
2022-11-10T03:22:48.490Z,984.20
2022-11-10T03:23:48.444Z,984.20
2022-11-10T03:24:48.429Z,984.21
2022-11-10T03:25:48.406Z,984.25
2022-11-10T03:26:48.423Z,984.25
2022-11-10T03:27:48.392Z,984.23
2022-11-10T03:28:48.381Z,984.23
2022-11-10T03:29:48.357Z,984.25
2022-11-10T03:30:48.374Z,984.29
2022-11-10T03:31:48.325Z,984.29
2022-11-10T03:32:48.317Z,984.31
2022-11-10T03:33:48.340Z,984.31
2022-11-10T03:34:48.297Z,984.30
2022-11-10T03:35:48.288Z,984.31
2022-11-10T03:36:48.266Z,984.33
2022-11-10T03:37:48.255Z,984.33
2022-11-10T03:38:48.238Z,984.35
2022-11-10T03:39:48.225Z,984.35
2022-11-10T03:41:17.521Z,984.32
2022-11-10T03:41:49.198Z,984.37
2022-11-10T03:42:48.189Z,984.41
2022-11-10T03:43:48.181Z,984.42
2022-11-10T03:44:48.169Z,984.52
2022-11-10T03:45:48.156Z,984.48
2022-11-10T03:46:51.580Z,984.52
2022-11-10T03:47:48.120Z,984.49
2022-11-10T03:48:53.202Z,984.48
2022-11-10T03:49:49.112Z,984.50
2022-11-10T04:03:13.594Z,984.62
2022-11-10T04:04:13.656Z,984.64
2022-11-10T04:05:13.595Z,984.69
2022-11-10T04:06:14.322Z,984.73
2022-11-10T04:07:13.644Z,984.68
2022-11-10T04:08:15.545Z,984.73
2022-11-10T04:09:13.583Z,984.79
2022-11-10T04:10:13.507Z,984.84
2022-11-10T04:11:13.480Z,984.79
2022-11-10T04:12:13.506Z,984.82
2022-11-10T04:13:13.465Z,984.89
2022-11-10T04:14:15.499Z,984.89
2022-11-10T04:15:13.463Z,984.88
2022-11-10T04:16:13.425Z,984.89
2022-11-10T04:17:13.455Z,984.97
2022-11-10T04:18:13.435Z,984.96
2022-11-10T04:19:13.386Z,984.95
2022-11-10T04:20:13.369Z,984.90
2022-11-10T04:21:13.364Z,984.94
2022-11-10T04:22:13.366Z,984.96
2022-11-10T04:23:13.375Z,984.97
2022-11-10T04:24:13.316Z,984.98
2022-11-10T04:25:13.316Z,984.98
2022-11-10T04:26:13.287Z,984.99
2022-11-10T04:27:13.277Z,985.04
2022-11-10T04:28:13.264Z,985.01
2022-11-10T04:29:13.386Z,985.06
2022-11-10T04:30:13.236Z,985.08
2022-11-10T04:31:13.229Z,985.05
2022-11-10T04:32:13.197Z,985.14
2022-11-10T04:33:13.236Z,985.11
2022-11-10T04:34:13.184Z,985.13
2022-11-10T04:35:13.177Z,985.13
2022-11-10T04:36:13.166Z,985.10
2022-11-10T04:37:13.138Z,985.16
2022-11-10T04:38:13.125Z,985.11
2022-11-10T04:39:13.224Z,985.18
2022-11-10T04:40:13.187Z,985.16
2022-11-10T04:41:13.212Z,985.20
2022-11-10T04:42:13.109Z,985.18
2022-11-10T04:43:13.078Z,985.15
2022-11-10T04:44:13.138Z,985.20
2022-11-10T04:45:13.049Z,985.17
2022-11-10T04:46:13.011Z,985.16
2022-11-10T04:47:13.058Z,985.23
2022-11-10T04:48:12.999Z,985.21
2022-11-10T04:49:12.998Z,985.27
2022-11-10T04:50:13.058Z,985.28
2022-11-10T04:51:18.278Z,985.31
2022-11-10T04:52:14.009Z,985.33
2022-11-10T04:53:12.939Z,985.30
2022-11-10T04:54:13.942Z,985.34
2022-11-10T04:55:12.921Z,985.34
2022-11-10T04:56:12.921Z,985.29
2022-11-10T04:57:12.889Z,985.36
2022-11-10T04:58:12.871Z,985.43
2022-11-10T04:59:12.879Z,985.45
2022-11-10T05:00:12.851Z,985.39
2022-11-10T05:01:12.941Z,985.44
2022-11-10T05:02:12.809Z,985.51
2022-11-10T05:03:14.830Z,985.52
2022-11-10T05:04:12.822Z,985.50
2022-11-10T05:05:12.781Z,985.55
2022-11-10T05:06:12.793Z,985.58
2022-11-10T05:07:12.772Z,985.49
2022-11-10T05:08:13.731Z,985.51
2022-11-10T05:09:12.762Z,985.56
2022-11-10T05:10:12.736Z,985.54
2022-11-10T05:11:12.698Z,985.52
2022-11-10T05:12:12.789Z,985.54
2022-11-10T05:13:12.673Z,985.60
2022-11-10T05:14:12.668Z,985.61
2022-11-10T05:15:12.663Z,985.56
2022-11-10T05:16:12.631Z,985.61
2022-11-10T05:17:12.611Z,985.58
2022-11-10T05:18:12.602Z,985.65
2022-11-10T05:19:12.615Z,985.68
2022-11-10T05:20:12.583Z,985.75
2022-11-10T05:21:12.565Z,985.76
2022-11-10T05:22:13.531Z,985.82
2022-11-10T05:23:12.544Z,985.85
2022-11-10T05:24:13.543Z,985.84
2022-11-10T05:25:13.526Z,985.86
2022-11-10T05:26:12.493Z,985.86
2022-11-10T05:27:12.505Z,985.88
2022-11-10T05:28:12.473Z,985.89
2022-11-10T05:29:12.474Z,985.88
2022-11-10T05:30:12.483Z,985.96
2022-11-10T05:31:12.442Z,985.97
2022-11-10T05:32:12.434Z,986.00
2022-11-10T05:33:12.415Z,986.01
2022-11-10T05:34:12.396Z,986.03
2022-11-10T05:35:12.397Z,985.97
2022-11-10T05:36:12.363Z,986.03
2022-11-10T05:37:12.405Z,985.99
2022-11-10T05:38:12.336Z,986.04
2022-11-10T05:39:12.341Z,986.01
2022-11-10T05:40:12.335Z,986.05
2022-11-10T05:41:12.323Z,986.08
2022-11-10T05:42:12.296Z,986.15
2022-11-10T05:43:12.305Z,986.18
2022-11-10T05:44:12.287Z,986.21
2022-11-10T05:45:12.278Z,986.18
2022-11-10T05:46:12.235Z,986.20
2022-11-10T05:47:12.236Z,986.22
2022-11-10T05:48:12.216Z,986.23
2022-11-10T05:49:12.218Z,986.22
2022-11-10T05:50:12.207Z,986.22
2022-11-10T05:51:13.175Z,986.25
2022-11-10T05:52:12.156Z,986.25
2022-11-10T05:53:12.184Z,986.24
2022-11-10T05:54:12.186Z,986.30
2022-11-10T05:55:13.145Z,986.27
2022-11-10T05:56:14.156Z,986.22
2022-11-10T05:57:12.106Z,986.29
2022-11-10T05:58:12.092Z,986.32
2022-11-10T05:59:12.066Z,986.31
2022-11-10T06:00:12.088Z,986.33
2022-11-10T06:01:13.036Z,986.36
2022-11-10T06:02:12.043Z,986.33
2022-11-10T06:03:12.065Z,986.36
2022-11-10T06:04:12.009Z,986.44
2022-11-10T06:05:12.026Z,986.46
2022-11-10T06:06:12.975Z,986.49
2022-11-10T06:07:12.052Z,986.53
2022-11-10T06:08:11.969Z,986.54
2022-11-10T06:09:11.935Z,986.49
2022-11-10T06:10:11.946Z,986.48
2022-11-10T06:11:11.905Z,986.49
2022-11-10T06:12:11.908Z,986.52
2022-11-10T06:13:11.902Z,986.56
2022-11-10T06:14:11.878Z,986.60
2022-11-10T06:15:11.891Z,986.67
2022-11-10T06:16:11.839Z,986.67
2022-11-10T06:17:11.835Z,986.68
2022-11-10T06:18:11.819Z,986.74
2022-11-10T06:19:12.820Z,986.73
2022-11-10T06:20:11.806Z,986.75
2022-11-10T06:21:11.786Z,986.75
2022-11-10T06:22:11.781Z,986.80
2022-11-10T06:23:11.756Z,986.77
2022-11-10T06:24:11.736Z,986.80
2022-11-10T06:25:11.741Z,986.89
2022-11-10T06:26:12.735Z,986.92
2022-11-10T06:27:12.700Z,986.98
2022-11-10T06:28:11.685Z,987.03
2022-11-10T06:29:11.691Z,987.03
2022-11-10T06:30:11.681Z,987.07
2022-11-10T06:31:11.655Z,987.07
2022-11-10T06:32:11.628Z,987.08
2022-11-10T06:33:11.684Z,987.12
2022-11-10T06:34:11.608Z,987.23
2022-11-10T06:35:11.618Z,987.21
2022-11-10T06:36:12.585Z,987.19
2022-11-10T06:37:11.584Z,987.26
2022-11-10T06:38:11.549Z,987.29
2022-11-10T06:39:11.548Z,987.32
2022-11-10T06:40:11.552Z,987.33
2022-11-10T06:41:11.512Z,987.41
2022-11-10T06:42:11.509Z,987.42
2022-11-10T06:43:11.501Z,987.35
2022-11-10T06:44:11.481Z,987.40
2022-11-10T06:45:11.470Z,987.43
2022-11-10T06:46:11.453Z,987.40
2022-11-10T06:47:12.450Z,987.43
2022-11-10T06:48:11.433Z,987.48
2022-11-10T06:49:13.438Z,987.57
2022-11-10T06:50:11.421Z,987.59
2022-11-10T06:51:11.370Z,987.61
2022-11-10T06:52:12.368Z,987.64
2022-11-10T06:53:11.351Z,987.64
2022-11-10T06:54:11.352Z,987.63
2022-11-10T06:55:11.340Z,987.64
2022-11-10T06:56:11.392Z,987.70
2022-11-10T06:57:11.302Z,987.66
2022-11-10T06:58:11.292Z,987.76
2022-11-10T06:59:11.282Z,987.76
2022-11-10T07:00:11.315Z,987.73
2022-11-10T07:01:11.262Z,987.79
2022-11-10T07:02:13.916Z,987.74
2022-11-10T07:03:11.212Z,987.75
2022-11-10T07:04:19.816Z,987.76
2022-11-10T07:05:12.226Z,987.80
2022-11-10T07:06:32.206Z,987.84
2022-11-10T07:07:11.218Z,987.83
2022-11-10T07:08:11.191Z,987.86
2022-11-10T07:09:11.168Z,987.87
2022-11-10T07:10:11.120Z,987.87
2022-11-10T07:11:11.114Z,987.95
2022-11-10T07:12:11.093Z,988.01
2022-11-10T07:13:11.094Z,988.00
2022-11-10T07:14:11.134Z,987.95
2022-11-10T07:15:11.104Z,987.97
2022-11-10T07:16:11.075Z,987.97
2022-11-10T07:17:11.044Z,987.98
2022-11-10T07:18:11.048Z,988.01
2022-11-10T07:19:12.044Z,988.01
2022-11-10T07:20:11.018Z,988.04
2022-11-10T07:21:10.994Z,987.98
2022-11-10T07:22:11.539Z,988.00
2022-11-10T07:23:11.968Z,988.00
2022-11-10T07:24:10.981Z,988.10
2022-11-10T07:25:10.964Z,988.06
2022-11-10T07:26:10.905Z,988.04
2022-11-10T07:27:10.906Z,988.06
2022-11-10T07:28:10.894Z,988.06
2022-11-10T07:29:10.873Z,988.10
2022-11-10T07:30:10.874Z,988.17
2022-11-10T07:31:10.878Z,988.14
2022-11-10T07:32:10.835Z,988.16
2022-11-10T07:33:10.837Z,988.13
2022-11-10T07:34:10.806Z,988.16
2022-11-10T07:35:10.835Z,988.14
2022-11-10T07:36:11.830Z,988.16
2022-11-10T07:37:10.776Z,988.21
2022-11-10T07:38:10.771Z,988.17
2022-11-10T07:39:10.782Z,988.22
2022-11-10T07:40:10.737Z,988.25
2022-11-10T07:41:10.739Z,988.29
2022-11-10T07:42:11.696Z,988.22
2022-11-10T07:43:10.694Z,988.23
2022-11-10T07:44:10.707Z,988.22
2022-11-10T07:45:10.690Z,988.16
2022-11-10T07:46:10.639Z,988.19
2022-11-10T07:47:10.628Z,988.26
2022-11-10T07:48:10.615Z,988.26
2022-11-10T07:49:11.624Z,988.30
2022-11-10T07:50:12.607Z,988.33
2022-11-10T07:51:10.615Z,988.39
2022-11-10T07:52:10.547Z,988.38
2022-11-10T07:53:12.599Z,988.46
2022-11-10T07:54:11.537Z,988.39
2022-11-10T07:55:10.536Z,988.52
2022-11-10T07:56:10.491Z,988.50
2022-11-10T07:57:10.538Z,988.54
2022-11-10T07:58:10.473Z,988.57
2022-11-10T07:59:10.496Z,988.55
2022-11-10T08:00:10.471Z,988.59
2022-11-10T08:01:10.469Z,988.61
2022-11-10T08:02:12.456Z,988.55
2022-11-10T08:03:10.429Z,988.57
2022-11-10T08:04:10.418Z,988.59
2022-11-10T08:05:10.399Z,988.66
2022-11-10T08:06:10.418Z,988.64
2022-11-10T08:07:10.470Z,988.69
2022-11-10T08:08:10.361Z,988.74
2022-11-10T08:09:10.350Z,988.79
2022-11-10T08:10:10.331Z,988.74
2022-11-10T08:11:10.324Z,988.81
2022-11-10T08:12:10.284Z,988.75
2022-11-10T08:13:10.297Z,988.75
2022-11-10T08:14:10.310Z,988.75
2022-11-10T08:15:10.280Z,988.87
2022-11-10T08:16:10.251Z,988.89
2022-11-10T08:17:10.234Z,988.88
2022-11-10T08:18:10.230Z,988.85
2022-11-10T08:19:10.221Z,988.93
2022-11-10T08:20:11.209Z,988.96
2022-11-10T08:21:10.215Z,988.96
2022-11-10T08:22:10.171Z,989.00
2022-11-10T08:23:10.173Z,989.05
2022-11-10T08:24:10.143Z,989.03
2022-11-10T08:25:10.152Z,989.05
2022-11-10T08:26:10.141Z,989.01
2022-11-10T08:27:10.111Z,989.02
2022-11-10T08:28:10.096Z,989.02
2022-11-10T08:29:11.073Z,989.05
2022-11-10T08:30:10.078Z,989.01
2022-11-10T08:31:10.062Z,989.05
2022-11-10T08:32:10.031Z,989.08
2022-11-10T08:33:10.045Z,989.20
2022-11-10T08:34:11.022Z,989.20
2022-11-10T08:35:10.031Z,989.24
2022-11-10T08:36:10.011Z,989.29
2022-11-10T08:37:09.974Z,989.31
2022-11-10T08:38:10.131Z,989.28
2022-11-10T08:39:09.954Z,989.33
2022-11-10T08:40:09.969Z,989.35
2022-11-10T08:41:09.923Z,989.28
2022-11-10T08:42:09.913Z,989.25
2022-11-10T08:43:09.893Z,989.25
2022-11-10T08:44:11.221Z,989.25
2022-11-10T08:45:09.900Z,989.28
2022-11-10T08:46:09.856Z,989.32
2022-11-10T08:47:09.843Z,989.29
2022-11-10T08:48:09.835Z,989.34
2022-11-10T08:49:09.830Z,989.33
2022-11-10T08:50:10.813Z,989.33
2022-11-10T08:51:09.794Z,989.33
2022-11-10T08:52:09.773Z,989.33
2022-11-10T08:53:09.783Z,989.32
2022-11-10T08:54:09.760Z,989.40
2022-11-10T08:55:09.744Z,989.41
2022-11-10T08:56:09.741Z,989.42
2022-11-10T08:57:11.745Z,989.50
2022-11-10T08:58:09.705Z,989.42
2022-11-10T08:59:09.688Z,989.45
2022-11-10T09:00:09.693Z,989.44
2022-11-10T09:01:09.658Z,989.44
2022-11-10T09:02:09.667Z,989.48
2022-11-10T09:03:09.647Z,989.53
2022-11-10T09:04:09.704Z,989.50
2022-11-10T09:05:09.615Z,989.46
2022-11-10T09:06:10.609Z,989.43
2022-11-10T09:07:09.620Z,989.42
2022-11-10T09:08:09.559Z,989.43
2022-11-10T09:09:09.552Z,989.42
2022-11-10T09:10:09.548Z,989.39
2022-11-10T09:11:09.524Z,989.41
2022-11-10T09:12:09.518Z,989.44
2022-11-10T09:13:09.578Z,989.45
2022-11-10T09:14:09.508Z,989.50
2022-11-10T09:15:09.548Z,989.48
2022-11-10T09:16:09.503Z,989.51
2022-11-10T09:17:09.472Z,989.49
2022-11-10T09:18:09.464Z,989.50
2022-11-10T09:19:09.429Z,989.51
2022-11-10T09:20:10.491Z,989.56
2022-11-10T09:21:17.919Z,989.57
2022-11-10T09:22:09.385Z,989.65
2022-11-10T09:23:09.380Z,989.70
2022-11-10T09:24:09.351Z,989.70
2022-11-10T09:25:10.344Z,989.62
2022-11-10T09:26:09.378Z,989.71
2022-11-10T09:27:09.324Z,989.84
2022-11-10T09:28:09.304Z,989.79
2022-11-10T09:29:09.295Z,989.84
2022-11-10T09:30:14.587Z,989.87
2022-11-10T09:31:10.280Z,989.86
2022-11-10T09:32:09.266Z,989.88
2022-11-10T09:33:09.224Z,989.94
2022-11-10T09:34:09.216Z,990.03
2022-11-10T09:35:09.195Z,990.04
2022-11-10T09:36:09.205Z,989.99
2022-11-10T09:37:09.185Z,990.14
2022-11-10T09:38:09.159Z,990.06
2022-11-10T09:39:09.154Z,990.14
2022-11-10T09:40:12.739Z,990.13
2022-11-10T09:41:09.137Z,990.09
2022-11-10T09:42:09.116Z,990.15
2022-11-10T09:43:09.105Z,990.04
2022-11-10T09:44:09.091Z,990.16
2022-11-10T09:45:11.098Z,990.09
2022-11-10T09:46:09.068Z,990.10
2022-11-10T09:47:12.080Z,990.12
2022-11-10T10:03:50.600Z,990.42
2022-11-10T10:04:52.095Z,990.35
2022-11-10T10:05:50.581Z,990.33
2022-11-10T10:07:10.295Z,990.32
2022-11-10T10:07:51.651Z,990.32
2022-11-10T10:08:50.511Z,990.24
2022-11-10T10:09:50.522Z,990.16
2022-11-10T10:10:50.514Z,990.25
2022-11-10T10:11:50.490Z,990.25
2022-11-10T10:12:50.482Z,990.28
2022-11-10T10:13:50.474Z,990.25
2022-11-10T10:14:50.448Z,990.29
2022-11-10T10:15:50.451Z,990.29
2022-11-10T10:16:50.421Z,990.28
2022-11-10T10:17:50.411Z,990.28
2022-11-10T10:18:50.403Z,990.24
2022-11-10T10:19:50.399Z,990.24
2022-11-10T10:20:50.374Z,990.28
2022-11-10T10:21:51.361Z,990.26
2022-11-10T10:22:50.344Z,990.23
2022-11-10T10:24:51.324Z,990.29
2022-11-10T10:25:51.326Z,990.23
2022-11-10T10:26:50.312Z,990.24
2022-11-10T10:27:50.283Z,990.22
2022-11-10T10:28:50.282Z,990.23
2022-11-10T10:29:50.274Z,990.23
2022-11-10T10:30:52.253Z,990.32
2022-11-10T10:31:50.232Z,990.37
2022-11-10T10:32:50.224Z,990.33
2022-11-10T10:33:50.205Z,990.35
2022-11-10T10:34:50.204Z,990.38
2022-11-10T10:35:50.190Z,990.33
2022-11-10T10:36:50.175Z,990.35
2022-11-10T10:37:51.166Z,990.34
2022-11-10T10:38:50.143Z,990.33
2022-11-10T10:39:50.146Z,990.34
2022-11-10T10:40:50.123Z,990.30
2022-11-10T10:41:50.107Z,990.32
2022-11-10T10:42:51.095Z,990.37
2022-11-10T10:43:50.076Z,990.32
2022-11-10T10:44:50.086Z,990.35
2022-11-10T10:45:50.118Z,990.33
2022-11-10T10:46:50.046Z,990.33
2022-11-10T10:47:50.026Z,990.33
2022-11-10T10:48:53.823Z,990.34
2022-11-10T10:49:51.016Z,990.35
2022-11-10T10:50:49.998Z,990.30
2022-11-10T10:51:49.977Z,990.29
2022-11-10T10:52:49.957Z,990.35
2022-11-10T10:53:49.957Z,990.34
2022-11-10T10:54:49.947Z,990.33
2022-11-10T10:55:49.948Z,990.34
2022-11-10T10:56:49.908Z,990.30
2022-11-10T10:57:49.889Z,990.29
2022-11-10T10:58:49.896Z,990.27
2022-11-10T10:59:49.867Z,990.22
2022-11-10T11:00:50.874Z,990.16
2022-11-10T11:01:50.911Z,990.25
2022-11-10T11:02:49.838Z,990.21
2022-11-10T11:03:49.830Z,990.22
2022-11-10T11:04:49.811Z,990.19
2022-11-10T11:05:49.811Z,990.28
2022-11-10T11:06:50.863Z,990.17
2022-11-10T11:07:49.771Z,990.13
2022-11-10T11:08:50.757Z,990.17
2022-11-10T11:09:49.760Z,990.23
2022-11-10T11:10:50.736Z,990.12
2022-11-10T11:11:50.711Z,990.15
2022-11-10T11:12:49.719Z,990.22
2022-11-10T11:13:49.691Z,990.06
2022-11-10T11:14:49.709Z,990.08
2022-11-10T11:15:49.679Z,990.14
2022-11-10T11:16:50.653Z,990.18
2022-11-10T11:17:49.701Z,990.08
2022-11-10T11:18:49.621Z,990.18
2022-11-10T11:19:49.609Z,990.12
2022-11-10T11:20:49.612Z,990.13
2022-11-10T11:21:49.583Z,990.12
2022-11-10T11:22:49.574Z,990.12
2022-11-10T11:23:49.572Z,990.13
2022-11-10T11:24:50.554Z,990.18
2022-11-10T11:25:49.554Z,990.21
2022-11-10T11:26:49.534Z,990.17
2022-11-10T11:27:49.513Z,990.25
2022-11-10T11:28:49.507Z,990.28
2022-11-10T11:29:49.488Z,990.18
2022-11-10T11:30:49.496Z,990.22
2022-11-10T11:31:49.478Z,990.16
2022-11-10T11:32:49.458Z,990.15
2022-11-10T11:33:49.424Z,990.15
2022-11-10T11:34:50.423Z,990.11
2022-11-10T11:35:49.426Z,990.17
2022-11-10T11:36:49.405Z,990.15
2022-11-10T11:37:50.382Z,990.19
2022-11-10T11:38:49.404Z,990.21
2022-11-10T11:39:50.368Z,990.14
2022-11-10T11:40:49.388Z,990.08
2022-11-10T11:41:49.344Z,990.07
2022-11-10T11:42:50.317Z,990.09
2022-11-10T11:43:49.303Z,990.09
2022-11-10T11:44:50.308Z,990.06
2022-11-10T11:45:49.311Z,990.06
2022-11-10T11:46:49.668Z,990.06
2022-11-10T11:47:49.260Z,990.00
2022-11-10T11:48:49.236Z,990.07
2022-11-10T11:49:49.246Z,989.94
2022-11-10T11:50:49.231Z,989.96
2022-11-10T11:51:49.208Z,989.97
2022-11-10T11:52:49.190Z,989.93
2022-11-10T11:53:49.170Z,989.88
2022-11-10T11:54:49.181Z,989.89
2022-11-10T11:55:49.161Z,989.93
2022-11-10T11:56:49.140Z,989.90
2022-11-10T11:57:49.127Z,989.85
2022-11-10T11:58:49.134Z,989.82
2022-11-10T11:59:49.189Z,989.82
2022-11-10T12:00:49.111Z,989.83
2022-11-10T12:01:49.063Z,989.78
2022-11-10T12:02:52.986Z,989.71
2022-11-10T12:03:49.053Z,989.68
2022-11-10T12:04:49.044Z,989.79
2022-11-10T12:05:49.032Z,989.76
2022-11-10T12:06:49.062Z,989.69
2022-11-10T12:07:49.035Z,989.77
2022-11-10T12:08:48.993Z,989.70
2022-11-10T12:09:48.964Z,989.73
2022-11-10T12:10:48.989Z,989.75
2022-11-10T12:11:49.957Z,989.82
2022-11-10T12:12:48.962Z,989.74
2022-11-10T12:13:48.915Z,989.64
2022-11-10T12:14:48.904Z,989.65
2022-11-10T12:15:48.914Z,989.62
2022-11-10T12:16:48.913Z,989.66
2022-11-10T12:17:48.866Z,989.67
2022-11-10T12:18:49.789Z,989.66
2022-11-10T12:19:48.866Z,989.62
2022-11-10T12:20:48.847Z,989.64
2022-11-10T12:21:49.817Z,989.65
2022-11-10T12:22:48.825Z,989.81
2022-11-10T12:23:48.787Z,989.75
2022-11-10T12:24:48.778Z,989.73
2022-11-10T12:25:48.791Z,989.61
2022-11-10T12:26:49.750Z,989.69
2022-11-10T12:27:48.739Z,989.67
2022-11-10T12:28:48.745Z,989.73
2022-11-10T12:29:48.725Z,989.65
2022-11-10T12:30:48.714Z,989.68
2022-11-10T12:31:48.721Z,989.60
2022-11-10T12:32:48.690Z,989.59
2022-11-10T12:33:48.672Z,989.61
2022-11-10T12:34:48.652Z,989.63
2022-11-10T12:35:48.662Z,989.62
2022-11-10T12:36:49.622Z,989.68
2022-11-10T12:37:48.612Z,989.67
2022-11-10T12:38:48.657Z,989.67
2022-11-10T12:39:48.622Z,989.66
2022-11-10T12:40:48.600Z,989.65
2022-11-10T12:41:48.553Z,989.66
2022-11-10T12:42:49.554Z,989.61
2022-11-10T12:43:48.557Z,989.63
2022-11-10T12:44:49.528Z,989.65
2022-11-10T12:45:48.505Z,989.64
2022-11-10T12:46:52.022Z,989.61
2022-11-10T12:47:49.485Z,989.66
2022-11-10T12:48:48.469Z,989.55
2022-11-10T12:49:49.447Z,989.53
2022-11-10T12:50:49.467Z,989.52
2022-11-10T12:51:48.445Z,989.54
2022-11-10T12:52:48.426Z,989.52
2022-11-10T12:53:48.416Z,989.51
2022-11-10T12:54:48.401Z,989.63
2022-11-10T12:55:48.377Z,989.61
2022-11-10T12:56:48.381Z,989.63
2022-11-10T12:57:48.362Z,989.66